createdAt,value
2023-03-31T00:01:11.167Z,97574.53
2023-03-31T00:03:44.120Z,97575.09
2023-03-31T00:06:18.337Z,97562.56
2023-03-31T00:08:51.656Z,97554.72
2023-03-31T00:11:20.502Z,97550.84
2023-03-31T00:13:48.776Z,97545.25
2023-03-31T00:16:17.998Z,97543.66
2023-03-31T00:18:47.477Z,97542.94
2023-03-31T00:21:25.675Z,97545.97
2023-03-31T00:23:55.558Z,97543.53
2023-03-31T00:26:23.374Z,97531.72
2023-03-31T00:28:51.835Z,97526.44
2023-03-31T00:31:22.025Z,97538.19
2023-03-31T00:33:49.979Z,97547.81
2023-03-31T00:36:21.272Z,97534.75
2023-03-31T00:38:49.554Z,97533.47
2023-03-31T00:41:17.484Z,97523.28
2023-03-31T00:44:08.208Z,97523.47
2023-03-31T00:46:43.280Z,97521.81
2023-03-31T00:49:21.803Z,97513.94
2023-03-31T00:51:52.618Z,97522.84
2023-03-31T00:54:21.557Z,97517.66
2023-03-31T00:56:53.342Z,97518.38
2023-03-31T00:59:23.314Z,97508.59
2023-03-31T01:01:52.806Z,97501.22
2023-03-31T01:04:22.590Z,97498.13
2023-03-31T01:07:00.745Z,97494.25
2023-03-31T01:09:34.996Z,97488.97
2023-03-31T01:12:04.718Z,97480.34
2023-03-31T01:14:32.965Z,97472.44
2023-03-31T01:17:02.802Z,97467.88
2023-03-31T01:19:51.908Z,97470.94
2023-03-31T01:22:47.371Z,97473.31
2023-03-31T01:25:54.068Z,97456.53
2023-03-31T01:28:32.259Z,97439.81
2023-03-31T01:31:30.088Z,97439.38
2023-03-31T01:34:31.272Z,97437.44
2023-03-31T01:37:40.922Z,97446.84
2023-03-31T01:40:49.462Z,97441.47
2023-03-31T01:43:25.361Z,97432.44
2023-03-31T01:46:02.051Z,97435.16
2023-03-31T01:48:43.478Z,97438.22
2023-03-31T01:51:17.004Z,97415.50
2023-03-31T01:53:51.515Z,97408.59
2023-03-31T01:56:26.992Z,97406.19
2023-03-31T01:58:59.026Z,97410.63
2023-03-31T02:01:31.758Z,97407.47
2023-03-31T02:04:04.683Z,97399.88
2023-03-31T02:06:36.934Z,97395.00
2023-03-31T02:09:08.869Z,97393.56
2023-03-31T02:11:40.760Z,97398.28
2023-03-31T02:14:13.381Z,97393.81
2023-03-31T02:16:48.024Z,97380.34
2023-03-31T02:19:19.067Z,97375.31
2023-03-31T02:21:49.656Z,97380.78
2023-03-31T02:24:21.060Z,97381.59
2023-03-31T02:26:55.091Z,97379.66
2023-03-31T02:29:22.936Z,97369.69
2023-03-31T02:31:57.796Z,97369.25
2023-03-31T02:34:25.992Z,97377.00
2023-03-31T02:36:53.755Z,97378.59
2023-03-31T02:39:26.143Z,97370.69
2023-03-31T02:41:55.588Z,97366.38
2023-03-31T02:44:23.699Z,97369.97
2023-03-31T02:46:51.843Z,97365.38
2023-03-31T02:49:21.340Z,97360.53
2023-03-31T02:52:31.767Z,97355.06
2023-03-31T02:55:30.642Z,97349.31
2023-03-31T02:58:21.020Z,97348.75
2023-03-31T03:01:06.245Z,97339.47
2023-03-31T03:03:44.078Z,97335.88
2023-03-31T03:06:27.876Z,97326.03
2023-03-31T03:09:09.095Z,97318.16
2023-03-31T03:11:46.094Z,97315.19
2023-03-31T03:14:23.462Z,97311.19
2023-03-31T03:16:58.775Z,97298.69
2023-03-31T03:19:26.941Z,97292.53
2023-03-31T03:21:55.035Z,97298.69
2023-03-31T03:24:23.078Z,97283.81
2023-03-31T03:26:51.746Z,97288.66
2023-03-31T03:29:20.837Z,97281.81
2023-03-31T03:31:48.807Z,97281.75
2023-03-31T03:34:16.535Z,97264.66
2023-03-31T03:36:44.186Z,97270.72
2023-03-31T03:39:12.295Z,97261.97
2023-03-31T03:41:41.042Z,97265.47
2023-03-31T03:44:08.753Z,97253.88
2023-03-31T03:46:37.941Z,97257.63
2023-03-31T03:49:05.763Z,97249.88
2023-03-31T03:51:33.526Z,97257.75
2023-03-31T03:54:01.188Z,97255.34
2023-03-31T03:56:29.246Z,97248.91
2023-03-31T03:58:57.628Z,97244.13
2023-03-31T04:01:25.581Z,97241.16
2023-03-31T04:03:54.655Z,97237.19
2023-03-31T04:06:22.433Z,97236.44
2023-03-31T04:08:50.212Z,97236.44
2023-03-31T04:11:20.021Z,97237.19
2023-03-31T04:13:48.437Z,97233.69
2023-03-31T04:16:16.758Z,97230.97
2023-03-31T04:18:44.830Z,97215.53
2023-03-31T04:21:15.394Z,97214.94
2023-03-31T04:23:46.524Z,97209.91
2023-03-31T04:26:15.240Z,97209.91
2023-03-31T04:28:46.543Z,97196.59
2023-03-31T04:31:16.696Z,97191.97
2023-03-31T04:33:46.214Z,97188.84
2023-03-31T04:36:18.591Z,97183.81
2023-03-31T04:38:47.754Z,97174.34
2023-03-31T04:41:15.730Z,97167.03
2023-03-31T04:43:43.991Z,97159.66
2023-03-31T04:46:11.829Z,97147.81
2023-03-31T04:48:39.713Z,97142.06
2023-03-31T04:51:07.428Z,97146.38
2023-03-31T04:53:36.627Z,97127.63
2023-03-31T04:56:06.326Z,97127.50
2023-03-31T04:58:34.396Z,97115.13
2023-03-31T05:01:02.098Z,97112.28
2023-03-31T05:03:29.946Z,97114.06
2023-03-31T05:05:57.891Z,97105.03
2023-03-31T05:08:27.225Z,97111.13
2023-03-31T05:10:56.669Z,97097.81
2023-03-31T05:13:25.064Z,97092.47
2023-03-31T05:15:53.090Z,97096.44
2023-03-31T05:18:21.043Z,97096.34
2023-03-31T05:20:48.957Z,97093.22
2023-03-31T05:23:16.876Z,97083.16
2023-03-31T05:25:44.846Z,97075.81
2023-03-31T05:28:14.200Z,97060.59
2023-03-31T05:30:42.179Z,97056.44
2023-03-31T05:33:10.083Z,97036.38
2023-03-31T05:35:38.019Z,97042.56
2023-03-31T05:38:06.679Z,97040.91
2023-03-31T05:40:34.637Z,97034.63
2023-03-31T05:43:02.779Z,97026.53
2023-03-31T05:45:32.130Z,97017.84
2023-03-31T05:48:00.324Z,97015.84
2023-03-31T05:50:28.310Z,97014.38
2023-03-31T05:52:56.146Z,97018.91
2023-03-31T05:55:24.860Z,97011.97
2023-03-31T05:57:52.578Z,97008.88
2023-03-31T06:00:20.912Z,97015.75
2023-03-31T06:02:50.018Z,97004.78
2023-03-31T06:05:17.924Z,97010.88
2023-03-31T06:07:45.666Z,96994.72
2023-03-31T06:10:13.280Z,97000.25
2023-03-31T06:12:41.066Z,96995.53
2023-03-31T06:15:09.590Z,96987.13
2023-03-31T06:17:38.632Z,96991.75
2023-03-31T06:20:20.158Z,96994.47
2023-03-31T06:22:54.678Z,96991.00
2023-03-31T06:25:22.614Z,96994.16
2023-03-31T06:27:50.321Z,96990.34
2023-03-31T06:30:18.324Z,96997.31
2023-03-31T06:32:46.113Z,96992.59
2023-03-31T06:35:15.371Z,97007.44
2023-03-31T06:37:43.117Z,97003.94
2023-03-31T06:40:11.793Z,97009.94
2023-03-31T06:42:39.475Z,96999.38
2023-03-31T06:45:08.124Z,97006.81
2023-03-31T06:47:38.161Z,97018.66
2023-03-31T06:50:07.146Z,97027.94
2023-03-31T06:52:36.371Z,97013.72
2023-03-31T06:55:04.270Z,97026.53
2023-03-31T06:57:33.563Z,97036.56
2023-03-31T07:00:01.579Z,97030.56
2023-03-31T07:02:29.402Z,97032.97
2023-03-31T07:04:57.104Z,97021.44
2023-03-31T07:07:24.780Z,97011.59
2023-03-31T07:09:56.361Z,97015.13
2023-03-31T07:12:24.570Z,97018.50
2023-03-31T07:14:52.257Z,97012.41
2023-03-31T07:17:20.034Z,97002.28
2023-03-31T07:19:48.570Z,96997.22
2023-03-31T07:22:16.520Z,96995.13
2023-03-31T07:24:44.252Z,96983.19
2023-03-31T07:27:13.291Z,96974.78
2023-03-31T07:29:41.019Z,96977.97
2023-03-31T07:32:08.772Z,96979.13
2023-03-31T07:34:37.813Z,96972.59
2023-03-31T07:37:06.204Z,96964.44
2023-03-31T07:39:33.899Z,96956.69
2023-03-31T07:42:01.740Z,96960.69
2023-03-31T07:44:31.403Z,96945.91
2023-03-31T07:47:01.370Z,96938.94
2023-03-31T07:49:29.134Z,96935.63
2023-03-31T07:51:56.986Z,96935.75
2023-03-31T07:54:24.683Z,96924.75
2023-03-31T07:56:52.355Z,96924.44
2023-03-31T07:59:20.712Z,96918.75
2023-03-31T08:01:49.786Z,96927.22
2023-03-31T08:04:17.627Z,96922.66
2023-03-31T08:06:45.843Z,96920.97
2023-03-31T08:09:13.526Z,96926.84
2023-03-31T08:11:41.241Z,96934.13
2023-03-31T08:14:08.885Z,96946.53
2023-03-31T08:16:36.947Z,96934.91
2023-03-31T08:19:06.090Z,96950.09
2023-03-31T08:21:33.802Z,96936.41
2023-03-31T08:24:01.486Z,96947.16
2023-03-31T08:26:29.161Z,96946.44
2023-03-31T08:28:59.065Z,96944.97
2023-03-31T08:31:29.056Z,96929.94
2023-03-31T08:33:57.329Z,96935.81
2023-03-31T08:36:27.182Z,96927.72
2023-03-31T08:38:55.001Z,96914.88
2023-03-31T08:41:43.687Z,96915.03
2023-03-31T08:44:15.981Z,96882.31
2023-03-31T08:46:44.577Z,96771.16
2023-03-31T08:49:17.558Z,96718.56
2023-03-31T08:51:50.165Z,96680.81
2023-03-31T08:54:22.168Z,96755.59
2023-03-31T08:56:51.805Z,96759.19
2023-03-31T08:59:27.227Z,96764.44
2023-03-31T09:02:01.958Z,96763.69
2023-03-31T09:04:52.396Z,96783.97
2023-03-31T09:07:28.022Z,96806.75
2023-03-31T09:10:03.979Z,96804.06
2023-03-31T09:12:39.991Z,96824.50
2023-03-31T09:15:12.988Z,96824.91
2023-03-31T09:17:45.691Z,96818.31
2023-03-31T09:20:17.058Z,96800.72
2023-03-31T09:22:49.543Z,96787.50
2023-03-31T09:25:22.500Z,96779.75
2023-03-31T09:27:53.575Z,96786.75
2023-03-31T09:30:25.351Z,96789.13
2023-03-31T09:32:57.965Z,96776.69
2023-03-31T09:35:27.323Z,96770.38
2023-03-31T09:37:57.155Z,96790.81
2023-03-31T09:40:27.864Z,96780.03
2023-03-31T09:43:11.576Z,96783.16
2023-03-31T09:57:02.546Z,96754.50
2023-03-31T09:59:35.089Z,96733.97
2023-03-31T10:02:05.936Z,96734.78
2023-03-31T10:04:35.918Z,96728.44
2023-03-31T10:07:06.440Z,96739.66
2023-03-31T10:09:35.393Z,96733.91
2023-03-31T10:12:08.542Z,96735.13
2023-03-31T10:14:42.470Z,96734.25
2023-03-31T10:17:16.806Z,96753.59
2023-03-31T10:19:50.383Z,96732.31
2023-03-31T10:22:28.985Z,96738.19
2023-03-31T10:25:10.884Z,96723.59
2023-03-31T10:27:42.157Z,96716.22
2023-03-31T10:30:13.264Z,96714.22
2023-03-31T10:32:43.564Z,96715.78
2023-03-31T10:35:23.565Z,96711.19
2023-03-31T10:37:55.704Z,96708.50
2023-03-31T10:40:26.452Z,96713.59
2023-03-31T10:43:05.001Z,96704.78
2023-03-31T10:45:38.743Z,96700.50
2023-03-31T10:48:17.944Z,96707.16
2023-03-31T10:50:46.073Z,96694.63
2023-03-31T10:53:15.615Z,96690.75
2023-03-31T10:55:54.022Z,96699.47
2023-03-31T10:58:35.294Z,96693.56
2023-03-31T11:01:15.075Z,96679.38
2023-03-31T11:04:04.409Z,96664.53
2023-03-31T11:06:50.408Z,96663.34
2023-03-31T11:09:33.214Z,96678.03
2023-03-31T11:12:09.270Z,96651.19
2023-03-31T11:14:52.437Z,96648.09
2023-03-31T11:17:31.542Z,96656.66
2023-03-31T11:20:13.084Z,96655.72
2023-03-31T11:22:48.326Z,96660.03
2023-03-31T11:25:27.485Z,96656.44
2023-03-31T11:28:21.367Z,96644.03
2023-03-31T11:30:56.734Z,96634.16
2023-03-31T11:33:41.375Z,96637.69
2023-03-31T11:36:22.461Z,96641.72
2023-03-31T11:39:01.111Z,96632.28
2023-03-31T11:41:36.023Z,96633.38
2023-03-31T11:44:06.620Z,96623.19
2023-03-31T11:46:42.404Z,96633.50
2023-03-31T11:49:19.049Z,96619.44
2023-03-31T11:51:53.986Z,96622.91
2023-03-31T11:54:27.032Z,96635.78
2023-03-31T11:56:57.254Z,96637.69
2023-03-31T11:59:31.712Z,96638.94
2023-03-31T12:02:11.899Z,96630.38
2023-03-31T12:04:42.317Z,96638.94
2023-03-31T12:07:23.807Z,96634.59
2023-03-31T12:10:03.090Z,96641.13
2023-03-31T12:12:34.637Z,96639.38
2023-03-31T12:15:12.365Z,96645.75
2023-03-31T12:17:44.559Z,96634.25
2023-03-31T12:20:28.286Z,96644.16
2023-03-31T12:22:57.535Z,96668.31
2023-03-31T12:25:26.582Z,96665.19
2023-03-31T12:27:54.830Z,96655.53
2023-03-31T12:30:30.721Z,96667.72
2023-03-31T12:33:04.178Z,96642.06
2023-03-31T12:35:48.230Z,96655.34
2023-03-31T12:38:37.758Z,96636.00
2023-03-31T12:41:14.812Z,96653.47
2023-03-31T12:44:22.304Z,96650.81
2023-03-31T12:47:05.060Z,96653.56
2023-03-31T12:49:47.188Z,96653.66
2023-03-31T12:52:19.785Z,96649.66
2023-03-31T12:55:21.383Z,96640.25
2023-03-31T12:57:49.202Z,96620.31
2023-03-31T13:00:25.946Z,96596.38
2023-03-31T13:03:27.041Z,96607.72
2023-03-31T13:05:57.789Z,96671.56
2023-03-31T13:08:53.447Z,96746.81
2023-03-31T13:11:22.992Z,96756.94
2023-03-31T13:14:01.582Z,96736.97
2023-03-31T13:16:30.138Z,96701.22
2023-03-31T13:18:58.412Z,96691.03
2023-03-31T13:21:28.037Z,96695.75
2023-03-31T13:24:01.149Z,96686.53
2023-03-31T13:26:41.164Z,96672.06
2023-03-31T13:29:21.373Z,96676.16
2023-03-31T13:32:26.528Z,96659.44
2023-03-31T13:35:00.074Z,96653.53
2023-03-31T13:37:47.029Z,96649.41
2023-03-31T13:40:31.865Z,96635.06
2023-03-31T13:43:16.113Z,96642.88
2023-03-31T13:46:00.934Z,96631.53
2023-03-31T13:48:45.543Z,96636.59
2023-03-31T13:51:29.946Z,96628.00
2023-03-31T14:06:24.635Z,96630.31
2023-03-31T14:08:57.357Z,96627.97
2023-03-31T14:11:26.928Z,96627.25
2023-03-31T14:14:02.872Z,96613.19
2023-03-31T14:16:34.643Z,96613.53
2023-03-31T14:19:16.824Z,96617.44
2023-03-31T14:21:53.231Z,96610.75
2023-03-31T14:24:33.176Z,96602.00
2023-03-31T14:27:09.026Z,96608.19
2023-03-31T14:29:47.725Z,96598.69
2023-03-31T14:32:25.511Z,96601.81
2023-03-31T14:35:15.295Z,96595.19
2023-03-31T14:37:42.958Z,96595.56
2023-03-31T14:40:17.301Z,96595.88
2023-03-31T14:42:49.705Z,96593.22
2023-03-31T14:45:20.637Z,96595.50
2023-03-31T14:47:56.479Z,96594.78
2023-03-31T14:50:31.234Z,96593.97
2023-03-31T14:52:59.614Z,96596.91
2023-03-31T14:55:49.441Z,96591.38
2023-03-31T14:58:27.960Z,96593.84
2023-03-31T15:00:56.072Z,96581.09
2023-03-31T15:03:27.501Z,96584.66
2023-03-31T15:05:59.201Z,96574.50
2023-03-31T15:08:28.057Z,96577.59
2023-03-31T15:11:12.016Z,96570.16
2023-03-31T15:13:56.597Z,96563.88
2023-03-31T15:16:36.241Z,96566.09
2023-03-31T15:19:12.517Z,96567.25
2023-03-31T15:21:40.544Z,96561.75
2023-03-31T15:24:08.533Z,96557.06
2023-03-31T15:26:41.642Z,96551.69
2023-03-31T15:29:13.514Z,96557.97
2023-03-31T15:31:42.032Z,96560.34
2023-03-31T15:34:20.621Z,96561.91
2023-03-31T15:36:49.320Z,96566.97
2023-03-31T15:39:17.106Z,96575.97
2023-03-31T15:41:49.221Z,96577.56
2023-03-31T15:44:37.769Z,96568.56
2023-03-31T19:38:06.963Z,96687.69
2023-03-31T19:40:34.753Z,96684.56
2023-03-31T19:43:02.490Z,96685.31
2023-03-31T19:45:30.677Z,96685.31
2023-03-31T19:47:58.882Z,96677.09
2023-03-31T19:50:26.637Z,96674.38
2023-03-31T19:52:54.385Z,96676.69
2023-03-31T19:55:23.489Z,96675.91
2023-03-31T19:57:51.256Z,96675.13
2023-03-31T20:00:20.189Z,96672.78
2023-03-31T20:02:49.317Z,96670.41
2023-03-31T20:05:19.382Z,96676.22
2023-03-31T20:07:47.538Z,96680.91
2023-03-31T20:10:15.914Z,96682.06
2023-03-31T20:12:45.368Z,96692.97
2023-03-31T20:15:13.238Z,96687.13
2023-03-31T20:17:41.112Z,96691.31
2023-03-31T20:20:10.174Z,96707.09
2023-03-31T20:22:37.951Z,96695.78
2023-03-31T20:25:06.609Z,96710.56
2023-03-31T20:27:34.405Z,96716.00
2023-03-31T20:30:03.661Z,96708.56
2023-03-31T20:32:31.585Z,96711.09
2023-03-31T20:35:00.514Z,96693.00
2023-03-31T20:37:28.693Z,96700.59
2023-03-31T20:39:56.722Z,96696.63
2023-03-31T20:42:24.743Z,96683.28
2023-03-31T20:44:52.655Z,96687.16
2023-03-31T20:47:22.325Z,96698.03
2023-03-31T20:49:50.367Z,96694.16
2023-03-31T20:52:18.312Z,96682.44
2023-03-31T20:54:46.479Z,96679.72
2023-03-31T20:57:14.589Z,96684.75
2023-03-31T20:59:42.836Z,96685.25
2023-03-31T21:02:12.702Z,96689.63
2023-03-31T21:04:42.169Z,96692.03
2023-03-31T21:07:09.995Z,96704.47
2023-03-31T21:09:37.853Z,96693.59
2023-03-31T21:12:06.337Z,96687.31
2023-03-31T21:14:34.555Z,96698.97
2023-03-31T21:17:02.707Z,96700.50
2023-03-31T21:19:31.851Z,96700.50
2023-03-31T21:22:01.256Z,96703.59
2023-03-31T21:24:29.162Z,96709.09
2023-03-31T21:26:56.882Z,96706.72
2023-03-31T21:29:24.732Z,96712.16
2023-03-31T21:31:52.733Z,96715.31
2023-03-31T21:34:20.720Z,96720.66
2023-03-31T21:36:50.212Z,96718.75
2023-03-31T21:39:19.506Z,96713.69
2023-03-31T21:41:47.369Z,96718.34
2023-03-31T21:44:15.225Z,96722.69
2023-03-31T21:46:45.064Z,96721.53
2023-03-31T21:49:12.972Z,96709.84
2023-03-31T21:51:40.799Z,96709.09
2023-03-31T21:54:08.813Z,96713.00
2023-03-31T21:56:38.045Z,96723.22
2023-03-31T21:59:05.992Z,96722.47
2023-03-31T22:01:33.748Z,96717.03
2023-03-31T22:04:01.622Z,96714.72
2023-03-31T22:06:29.365Z,96713.94
2023-03-31T22:08:57.298Z,96715.50
2023-03-31T22:11:24.997Z,96709.28
2023-03-31T22:13:53.994Z,96710.47
2023-03-31T22:16:23.282Z,96706.16
2023-03-31T22:18:52.622Z,96715.50
2023-03-31T22:21:22.965Z,96708.59
2023-03-31T22:23:52.519Z,96705.81
2023-03-31T22:26:20.470Z,96707.72
2023-03-31T22:28:49.726Z,96714.31
2023-03-31T22:31:18.994Z,96710.06
2023-03-31T22:33:47.528Z,96717.75
2023-03-31T22:36:15.673Z,96714.72
2023-03-31T22:38:43.506Z,96720.16
2023-03-31T22:41:11.322Z,96723.22
2023-03-31T22:43:39.667Z,96717.75
2023-03-31T22:46:08.523Z,96716.50
2023-03-31T22:48:37.517Z,96713.78
2023-03-31T22:51:06.128Z,96713.44
2023-03-31T22:53:34.556Z,96712.94
2023-03-31T22:56:07.910Z,96716.47
2023-03-31T22:58:36.244Z,96713.78
2023-03-31T23:01:05.828Z,96713.72
2023-03-31T23:03:34.017Z,96710.59
2023-03-31T23:06:05.556Z,96708.13
2023-03-31T23:08:35.730Z,96707.66
2023-03-31T23:11:04.297Z,96711.16
2023-03-31T23:13:32.014Z,96709.66
2023-03-31T23:16:05.058Z,96714.38
2023-03-31T23:18:32.710Z,96709.75
2023-03-31T23:21:01.164Z,96710.91
2023-03-31T23:23:31.338Z,96700.41
2023-03-31T23:26:01.496Z,96701.97
2023-03-31T23:28:29.206Z,96711.34
2023-03-31T23:30:57.912Z,96703.47
2023-03-31T23:33:25.913Z,96691.88
2023-03-31T23:35:54.279Z,96698.13
2023-03-31T23:38:22.403Z,96695.84
2023-03-31T23:40:51.557Z,96693.53
2023-03-31T23:43:19.225Z,96692.03
2023-03-31T23:45:47.049Z,96697.41
2023-03-31T23:48:14.823Z,96695.06
2023-03-31T23:50:42.484Z,96685.84
2023-03-31T23:53:10.218Z,96700.59
2023-03-31T23:55:40.798Z,96704.56
2023-03-31T23:58:09.868Z,96692.94
